createdAt,value
2022-08-22T00:00:45.967Z,19.79
2022-08-22T00:02:44.020Z,20.07
2022-08-22T00:02:57.071Z,20.57
2022-08-22T00:02:59.457Z,21.38
2022-08-22T00:03:40.531Z,19.07
2022-08-22T00:06:15.492Z,19.86
2022-08-22T00:09:00.561Z,19.86
2022-08-22T00:11:58.134Z,19.65
2022-08-22T00:14:30.932Z,20.25
2022-08-22T00:17:17.453Z,20.22
2022-08-22T00:20:02.420Z,19.45
2022-08-22T00:22:40.102Z,19.88
2022-08-22T00:25:28.424Z,19.49
2022-08-22T00:28:00.559Z,20.14
2022-08-22T00:30:28.478Z,20.32
2022-08-22T00:32:59.984Z,20.11
2022-08-22T00:35:36.807Z,19.74
2022-08-22T00:38:08.760Z,20.00
2022-08-22T00:40:50.437Z,20.09
2022-08-22T00:43:50.548Z,20.20
2022-08-22T00:46:41.938Z,20.37
2022-08-22T00:49:57.037Z,20.28
2022-08-22T00:52:26.679Z,20.14
2022-08-22T00:55:17.647Z,19.71
2022-08-22T00:57:52.063Z,20.51
2022-08-22T01:00:29.673Z,20.67
2022-08-22T01:03:23.538Z,20.11
2022-08-22T01:06:04.715Z,19.99
2022-08-22T01:08:40.721Z,20.26
2022-08-22T01:11:31.141Z,19.89
2022-08-22T01:14:16.756Z,20.04
2022-08-22T01:17:21.872Z,19.73
2022-08-22T01:20:22.915Z,19.80
2022-08-22T01:23:04.889Z,19.67
2022-08-22T01:25:50.953Z,19.04
2022-08-22T01:28:36.288Z,20.04
2022-08-22T01:31:30.121Z,20.56
2022-08-22T01:34:26.389Z,20.32
2022-08-22T01:37:11.787Z,20.35
2022-08-22T01:40:22.439Z,20.83
2022-08-22T01:43:13.511Z,20.16
2022-08-22T01:46:09.431Z,18.86
2022-08-22T01:48:52.670Z,19.13
2022-08-22T01:51:28.659Z,19.64
2022-08-22T01:54:04.503Z,19.69
2022-08-22T01:56:49.750Z,19.90
2022-08-22T01:59:34.101Z,18.84
2022-08-22T02:02:38.934Z,18.52
2022-08-22T02:05:47.019Z,19.53
2022-08-22T02:08:30.875Z,19.48
2022-08-22T02:11:04.394Z,19.27
2022-08-22T02:13:42.684Z,19.14
2022-08-22T02:16:15.097Z,19.75
2022-08-22T02:18:57.813Z,18.99
2022-08-22T02:21:33.319Z,19.10
2022-08-22T02:24:37.431Z,19.38
2022-08-22T02:27:57.598Z,19.20
2022-08-22T02:31:06.397Z,20.26
2022-08-22T02:33:49.470Z,19.04
2022-08-22T02:36:25.267Z,19.06
2022-08-22T02:39:04.216Z,19.37
2022-08-22T02:41:57.151Z,18.82
2022-08-22T02:45:00.274Z,19.35
2022-08-22T02:47:36.093Z,19.08
2022-08-22T02:50:12.983Z,18.56
2022-08-22T02:52:58.391Z,19.27
2022-08-22T02:55:44.225Z,19.12
2022-08-22T02:58:36.970Z,19.54
2022-08-22T03:01:03.860Z,20.17
2022-08-22T03:03:39.661Z,19.86
2022-08-22T03:06:28.363Z,19.70
2022-08-22T03:09:16.974Z,19.81
2022-08-22T03:11:50.954Z,20.33
2022-08-22T03:14:32.923Z,20.53
2022-08-22T03:17:22.947Z,20.42
2022-08-22T03:20:06.540Z,20.57
2022-08-22T03:23:08.020Z,20.51
2022-08-22T03:25:56.840Z,20.70
2022-08-22T03:28:59.349Z,20.67
2022-08-22T03:31:28.669Z,20.80
2022-08-22T03:34:21.551Z,20.99
2022-08-22T03:37:03.188Z,19.65
2022-08-22T03:40:02.528Z,19.19
2022-08-22T03:42:36.211Z,19.43
2022-08-22T03:45:28.420Z,19.78
2022-08-22T03:47:58.977Z,19.36
2022-08-22T03:50:57.051Z,19.79
2022-08-22T03:54:08.244Z,19.78
2022-08-22T03:56:54.073Z,20.08
2022-08-22T03:59:28.712Z,19.62
2022-08-22T04:02:42.836Z,20.35
2022-08-22T04:05:28.997Z,19.86
2022-08-22T04:08:14.678Z,19.82
2022-08-22T04:11:21.586Z,20.25
2022-08-22T04:14:16.288Z,20.21
2022-08-22T04:17:25.652Z,20.30
2022-08-22T04:19:55.693Z,20.62
2022-08-22T04:23:03.648Z,20.05
2022-08-22T04:25:46.135Z,20.52
2022-08-22T04:28:24.681Z,20.16
2022-08-22T04:31:21.834Z,21.03
2022-08-22T04:34:12.125Z,20.14
2022-08-22T04:36:46.221Z,20.56
2022-08-22T04:39:34.962Z,19.80
2022-08-22T04:42:31.879Z,20.20
2022-08-22T04:45:20.477Z,19.87
2022-08-22T04:48:02.781Z,20.11
2022-08-22T04:50:41.211Z,20.21
2022-08-22T04:53:37.762Z,19.90
2022-08-22T04:56:31.201Z,20.26
2022-08-22T04:59:00.785Z,20.59
2022-08-22T05:02:07.870Z,20.34
2022-08-22T05:04:51.330Z,20.96
2022-08-22T05:07:24.836Z,21.17
2022-08-22T05:10:12.328Z,21.74
2022-08-22T05:12:53.359Z,21.47
2022-08-22T05:15:23.565Z,22.09
2022-08-22T05:17:52.112Z,21.65
2022-08-22T05:20:22.287Z,20.96
2022-08-22T05:22:54.212Z,21.39
2022-08-22T05:25:26.728Z,21.00
2022-08-22T05:28:13.951Z,21.25
2022-08-22T05:30:41.364Z,21.74
2022-08-22T05:33:17.117Z,20.03
2022-08-22T05:35:55.822Z,20.37
2022-08-22T05:38:29.669Z,20.93
2022-08-22T05:41:11.819Z,21.25
2022-08-22T05:43:42.314Z,20.56
2022-08-22T05:46:17.161Z,20.97
2022-08-22T05:48:51.436Z,20.82
2022-08-22T05:51:22.322Z,20.37
2022-08-22T05:53:54.012Z,19.91
2022-08-22T05:56:46.173Z,20.47
2022-08-22T05:59:26.887Z,19.69
2022-08-22T06:02:00.211Z,19.47
2022-08-22T06:04:45.427Z,19.83
2022-08-22T06:07:22.156Z,19.50
2022-08-22T06:09:49.237Z,19.80
2022-08-22T06:12:31.095Z,20.05
2022-08-22T06:15:23.755Z,20.06
2022-08-22T06:17:57.120Z,19.83
2022-08-22T06:20:32.488Z,20.85
2022-08-22T06:23:01.558Z,20.52
2022-08-22T06:25:36.238Z,21.08
2022-08-22T06:28:09.969Z,20.49
2022-08-22T06:30:38.179Z,20.55
2022-08-22T06:33:12.541Z,20.63
2022-08-22T06:36:00.225Z,20.42
2022-08-22T06:38:33.437Z,20.55
2022-08-22T06:41:03.871Z,20.17
2022-08-22T06:43:38.532Z,20.08
2022-08-22T06:46:06.702Z,19.99
2022-08-22T06:48:58.135Z,20.47
2022-08-22T06:51:28.920Z,20.74
2022-08-22T06:54:01.049Z,20.25
2022-08-22T06:56:39.528Z,20.00
2022-08-22T06:59:12.912Z,20.19
2022-08-22T07:02:08.253Z,20.42
2022-08-22T07:04:35.306Z,20.88
2022-08-22T07:07:02.823Z,20.78
2022-08-22T07:09:35.013Z,20.91
2022-08-22T07:12:05.234Z,20.00
2022-08-22T07:14:39.637Z,20.47
2022-08-22T07:17:09.474Z,19.92
2022-08-22T07:19:39.547Z,20.58
2022-08-22T07:22:22.017Z,21.34
2022-08-22T07:24:52.802Z,20.63
2022-08-22T07:27:43.927Z,20.38
2022-08-22T07:30:27.668Z,20.28
2022-08-22T07:33:23.661Z,20.69
2022-08-22T07:36:32.038Z,20.84
2022-08-22T07:39:02.175Z,20.46
2022-08-22T07:41:58.211Z,20.34
2022-08-22T07:44:30.048Z,20.71
2022-08-22T07:47:00.853Z,21.33
2022-08-22T07:49:34.719Z,21.71
2022-08-22T07:52:08.434Z,21.12
2022-08-22T07:54:41.636Z,20.77
2022-08-22T07:57:12.814Z,21.62
2022-08-22T07:59:47.136Z,21.48
2022-08-22T08:02:16.098Z,21.50
2022-08-22T08:04:43.412Z,21.06
2022-08-22T08:07:14.421Z,20.75
2022-08-22T08:09:44.871Z,21.02
2022-08-22T08:12:12.581Z,21.35
2022-08-22T08:14:41.476Z,21.19
2022-08-22T08:17:13.934Z,21.83
2022-08-22T08:19:42.707Z,21.47
2022-08-22T08:22:15.733Z,21.13
2022-08-22T08:24:45.233Z,21.94
2022-08-22T08:27:39.538Z,20.85
2022-08-22T08:30:26.815Z,21.48
2022-08-22T08:33:25.013Z,21.14
2022-08-22T08:36:02.326Z,21.50
2022-08-22T08:38:37.335Z,20.84
2022-08-22T08:41:50.582Z,21.33
2022-08-22T08:44:50.371Z,20.91
2022-08-22T08:47:29.133Z,22.18
2022-08-22T08:50:08.029Z,22.26
2022-08-22T08:53:01.967Z,22.66
2022-08-22T08:55:47.519Z,21.27
2022-08-22T08:58:33.092Z,22.19
2022-08-22T09:01:14.134Z,22.52
2022-08-22T09:04:16.829Z,21.95
2022-08-22T09:07:36.292Z,22.53
2022-08-22T09:10:16.770Z,22.62
2022-08-22T09:13:21.327Z,22.39
2022-08-22T09:16:26.207Z,21.82
2022-08-22T09:19:06.706Z,22.69
2022-08-22T09:21:44.704Z,23.05
2022-08-22T09:24:11.557Z,23.37
2022-08-22T09:26:50.991Z,23.49
2022-08-22T09:29:54.496Z,22.85
2022-08-22T09:32:42.405Z,21.78
2022-08-22T09:35:31.251Z,21.27
2022-08-22T09:38:08.235Z,22.48
2022-08-22T09:41:00.103Z,23.00
2022-08-22T09:43:44.134Z,22.28
2022-08-22T09:46:20.856Z,21.93
2022-08-22T09:49:00.820Z,22.37
2022-08-22T09:51:34.809Z,22.40
2022-08-22T09:54:13.260Z,22.95
2022-08-22T09:56:57.724Z,22.83
2022-08-22T09:59:33.796Z,23.03
2022-08-22T10:02:19.795Z,23.23
2022-08-22T10:04:58.181Z,22.88
2022-08-22T10:07:28.129Z,22.83
2022-08-22T10:10:26.773Z,22.40
2022-08-22T10:13:22.639Z,22.95
2022-08-22T10:15:57.558Z,23.16
2022-08-22T10:18:43.979Z,23.69
2022-08-22T10:21:25.748Z,22.98
2022-08-22T10:24:12.362Z,22.83
2022-08-22T10:26:58.646Z,23.71
2022-08-22T10:29:46.174Z,22.99
2022-08-22T10:32:27.098Z,23.11
2022-08-22T10:34:58.617Z,22.80
2022-08-22T10:37:36.836Z,23.14
2022-08-22T10:40:28.487Z,22.91
2022-08-22T10:43:13.268Z,23.18
2022-08-22T10:45:44.538Z,22.32
2022-08-22T10:48:11.383Z,22.46
2022-08-22T10:50:50.939Z,21.55
2022-08-22T10:53:34.862Z,21.46
2022-08-22T10:56:09.056Z,21.58
2022-08-22T10:58:56.364Z,21.46
2022-08-22T11:01:41.808Z,21.76
2022-08-22T11:04:28.080Z,22.07
2022-08-22T11:07:23.680Z,21.80
2022-08-22T11:10:05.404Z,21.95
2022-08-22T11:12:36.719Z,21.27
2022-08-22T11:15:43.643Z,21.36
2022-08-22T11:18:16.560Z,21.72
2022-08-22T11:21:01.887Z,22.52
2022-08-22T11:23:44.800Z,22.38
2022-08-22T11:26:13.565Z,22.61
2022-08-22T11:28:50.930Z,21.02
2022-08-22T11:31:27.570Z,21.92
2022-08-22T11:34:17.527Z,21.65
2022-08-22T11:36:50.318Z,21.80
2022-08-22T11:39:30.417Z,22.00
2022-08-22T11:42:09.239Z,22.72
2022-08-22T11:44:54.182Z,22.51
2022-08-22T11:47:27.146Z,22.57
2022-08-22T11:50:04.184Z,22.72
2022-08-22T11:52:51.767Z,22.56
2022-08-22T11:55:41.317Z,22.47
2022-08-22T11:58:30.216Z,22.79
2022-08-22T12:01:04.777Z,22.69
2022-08-22T12:03:44.093Z,22.63
2022-08-22T12:06:38.982Z,22.63
2022-08-22T12:09:47.911Z,22.72
2022-08-22T12:12:38.218Z,22.09
2022-08-22T12:15:33.300Z,23.02
2022-08-22T12:18:29.021Z,21.96
2022-08-22T12:21:29.867Z,21.85
2022-08-22T12:24:19.435Z,21.92
2022-08-22T12:27:09.971Z,23.34
2022-08-22T12:30:13.772Z,22.71
2022-08-22T12:33:10.007Z,21.90
2022-08-22T12:35:52.097Z,22.08
2022-08-22T12:38:37.333Z,23.22
2022-08-22T12:41:38.795Z,23.20
2022-08-22T12:44:36.934Z,23.93
2022-08-22T12:47:04.311Z,22.96
2022-08-22T12:50:01.872Z,23.79
2022-08-22T12:52:39.389Z,23.05
2022-08-22T12:55:24.862Z,23.19
2022-08-22T12:58:35.448Z,23.43
2022-08-22T13:01:06.680Z,23.79
2022-08-22T13:03:57.482Z,23.43
2022-08-22T13:06:36.320Z,24.04
2022-08-22T13:09:22.869Z,23.50
2022-08-22T13:12:00.090Z,23.44
2022-08-22T13:14:32.060Z,23.35
2022-08-22T13:17:13.497Z,23.65
2022-08-22T13:20:04.895Z,22.25
2022-08-22T13:22:35.152Z,22.88
2022-08-22T13:25:08.499Z,23.29
2022-08-22T13:28:03.427Z,22.84
2022-08-22T13:30:41.715Z,24.28
2022-08-22T13:33:16.784Z,22.65
2022-08-22T13:35:51.933Z,22.62
2022-08-22T13:38:48.326Z,22.53
2022-08-22T13:41:39.176Z,22.73
2022-08-22T13:44:17.188Z,22.64
2022-08-22T13:47:04.166Z,22.19
2022-08-22T13:49:37.465Z,22.53
2022-08-22T13:52:38.157Z,21.82
2022-08-22T13:55:22.669Z,20.94
2022-08-22T13:58:11.406Z,21.87
2022-08-22T14:00:57.967Z,21.66
2022-08-22T14:03:43.153Z,21.94
2022-08-22T14:06:38.178Z,21.50
2022-08-22T14:09:54.259Z,21.91
2022-08-22T14:12:56.712Z,22.60
2022-08-22T14:15:32.278Z,21.63
2022-08-22T14:18:30.526Z,23.01
2022-08-22T14:21:20.146Z,21.52
2022-08-22T14:23:51.544Z,21.92
2022-08-22T14:26:32.989Z,22.56
2022-08-22T14:29:12.162Z,22.47
2022-08-22T14:31:39.139Z,21.32
2022-08-22T14:34:12.343Z,22.08
2022-08-22T14:36:47.264Z,22.15
2022-08-22T14:39:47.807Z,22.38
2022-08-22T14:42:25.384Z,22.73
2022-08-22T14:45:11.392Z,22.53
2022-08-22T14:48:29.208Z,22.73
2022-08-22T14:50:50.389Z,21.71
2022-08-22T14:53:20.041Z,22.52
2022-08-22T14:56:29.994Z,21.21
2022-08-22T14:59:07.294Z,21.08
2022-08-22T15:01:50.923Z,21.88
2022-08-22T15:04:25.981Z,21.65
2022-08-22T15:06:57.856Z,22.17
2022-08-22T15:09:40.628Z,22.58
2022-08-22T15:12:21.527Z,20.80
2022-08-22T15:14:52.723Z,20.84
2022-08-22T15:17:39.252Z,21.88
2022-08-22T15:20:12.554Z,21.94
2022-08-22T15:22:41.632Z,21.74
2022-08-22T15:25:17.973Z,22.29
2022-08-22T15:27:58.208Z,21.90
2022-08-22T15:30:58.284Z,21.21
2022-08-22T15:33:29.343Z,20.46
2022-08-22T15:36:15.824Z,21.55
2022-08-22T15:38:46.899Z,21.25
2022-08-22T15:41:36.686Z,20.56
2022-08-22T15:44:32.441Z,20.78
2022-08-22T15:47:27.633Z,19.99
2022-08-22T15:49:58.995Z,20.96
2022-08-22T15:52:29.325Z,20.13
2022-08-22T15:54:57.079Z,20.57
2022-08-22T15:57:41.777Z,20.86
2022-08-22T16:00:43.376Z,20.08
2022-08-22T16:03:27.578Z,20.10
2022-08-22T16:06:00.485Z,20.07
2022-08-22T16:08:46.260Z,20.11
2022-08-22T16:11:18.314Z,19.88
2022-08-22T16:13:45.704Z,19.06
2022-08-22T16:16:51.229Z,18.91
2022-08-22T16:19:21.841Z,19.00
2022-08-22T16:21:57.126Z,19.12
2022-08-22T16:24:24.018Z,18.60
2022-08-22T16:26:51.589Z,18.28
2022-08-22T16:29:21.214Z,18.50
2022-08-22T16:31:48.099Z,18.92
2022-08-22T16:34:18.061Z,18.61
2022-08-22T16:36:50.050Z,18.71
2022-08-22T16:39:22.774Z,18.65
2022-08-22T16:42:19.722Z,18.80
2022-08-22T16:45:18.137Z,18.91
2022-08-22T16:48:02.450Z,19.25
2022-08-22T16:50:37.799Z,18.96
2022-08-22T16:53:33.706Z,19.24
2022-08-22T16:56:31.725Z,18.94
2022-08-22T16:59:14.218Z,18.30
2022-08-22T17:02:09.507Z,18.96
2022-08-22T17:04:43.124Z,19.33
2022-08-22T17:07:35.895Z,18.52
2022-08-22T17:10:29.551Z,19.31
2022-08-22T17:13:06.545Z,19.21
2022-08-22T17:15:55.257Z,19.59
2022-08-22T17:18:39.262Z,19.44
2022-08-22T17:21:13.472Z,19.01
2022-08-22T17:23:49.521Z,19.15
2022-08-22T17:26:48.563Z,18.98
2022-08-22T17:29:21.097Z,19.45
2022-08-22T17:31:53.782Z,19.28
2022-08-22T17:34:39.393Z,19.06
2022-08-22T17:37:38.330Z,19.21
2022-08-22T17:40:21.184Z,19.14
2022-08-22T17:43:05.712Z,19.89
2022-08-22T17:45:52.156Z,19.75
2022-08-22T17:48:25.962Z,19.42
2022-08-22T17:51:03.111Z,19.60
2022-08-22T17:53:41.147Z,20.00
2022-08-22T17:56:28.298Z,19.55
2022-08-22T17:59:06.291Z,19.08
2022-08-22T18:01:41.628Z,19.06
2022-08-22T18:04:17.250Z,18.93
2022-08-22T18:06:59.166Z,19.28
2022-08-22T18:09:40.011Z,18.57
2022-08-22T18:12:53.484Z,19.23
2022-08-22T18:15:44.073Z,18.52
2022-08-22T18:18:13.821Z,18.86
2022-08-22T18:21:08.292Z,18.99
2022-08-22T18:23:44.647Z,18.72
2022-08-22T18:26:24.509Z,19.30
2022-08-22T18:29:12.320Z,19.17
2022-08-22T18:32:00.722Z,18.93
2022-08-22T18:34:41.045Z,18.65
2022-08-22T18:37:19.613Z,19.19
2022-08-22T18:40:00.127Z,19.05
2022-08-22T18:42:32.213Z,19.58
2022-08-22T18:45:04.362Z,19.24
2022-08-22T18:47:33.632Z,19.43
2022-08-22T18:50:24.479Z,20.37
2022-08-22T18:52:51.829Z,20.20
2022-08-22T18:55:31.644Z,20.21
2022-08-22T18:58:02.661Z,19.70
2022-08-22T19:00:57.669Z,20.54
2022-08-22T19:03:36.225Z,20.76
2022-08-22T19:06:35.502Z,20.70
2022-08-22T19:09:21.339Z,21.05
2022-08-22T19:12:28.678Z,21.63
2022-08-22T19:15:15.584Z,22.03
2022-08-22T19:17:59.022Z,21.58
2022-08-22T19:20:50.771Z,21.48
2022-08-22T19:23:32.866Z,22.52
2022-08-22T19:26:24.710Z,21.39
2022-08-22T19:29:03.773Z,21.44
2022-08-22T19:31:44.336Z,21.50
2022-08-22T19:34:26.220Z,20.98
2022-08-22T19:37:30.681Z,20.49
2022-08-22T19:40:01.113Z,20.54
2022-08-22T19:42:34.426Z,20.14
2022-08-22T19:45:21.278Z,19.29
2022-08-22T19:47:58.140Z,19.97
2022-08-22T19:50:31.125Z,19.38
2022-08-22T19:53:10.589Z,21.00
2022-08-22T19:55:37.545Z,20.93
2022-08-22T19:58:33.268Z,20.76
2022-08-22T20:01:29.315Z,21.47
2022-08-22T20:04:20.707Z,21.43
2022-08-22T20:07:03.242Z,22.15
2022-08-22T20:09:53.620Z,22.85
2022-08-22T20:12:37.365Z,23.03
2022-08-22T20:15:22.588Z,22.68
2022-08-22T20:20:56.677Z,22.36
2022-08-22T20:23:28.812Z,22.74
2022-08-22T20:25:56.165Z,20.82
2022-08-22T20:28:45.466Z,21.27
2022-08-22T20:31:20.717Z,21.42
2022-08-22T20:33:53.477Z,20.81
2022-08-22T20:36:28.345Z,21.81
2022-08-22T20:39:06.812Z,22.06
2022-08-22T20:41:35.831Z,22.22
2022-08-22T20:44:18.584Z,22.39
2022-08-22T20:46:55.303Z,20.68
2022-08-22T20:49:41.186Z,21.68
2022-08-22T20:52:11.543Z,22.50
2022-08-22T20:54:40.804Z,21.84
2022-08-22T20:57:16.264Z,22.44
2022-08-22T20:59:56.794Z,21.78
2022-08-22T21:02:39.885Z,22.10
2022-08-22T21:05:21.408Z,21.88
2022-08-22T21:08:11.563Z,21.23
2022-08-22T21:10:58.436Z,21.27
2022-08-22T21:13:35.202Z,21.13
2022-08-22T21:16:18.488Z,21.85
2022-08-22T21:18:50.767Z,20.65
2022-08-22T21:21:18.122Z,20.98
2022-08-22T21:23:50.177Z,19.83
2022-08-22T21:26:29.938Z,20.56
2022-08-22T21:29:01.329Z,20.70
2022-08-22T21:31:34.248Z,21.23
2022-08-22T21:34:01.858Z,21.75
2022-08-22T21:36:30.629Z,21.40
2022-08-22T21:39:06.673Z,21.66
2022-08-22T21:41:48.098Z,21.24
2022-08-22T21:44:28.665Z,21.15
2022-08-22T21:46:56.270Z,21.30
2022-08-22T21:49:26.802Z,22.46
2022-08-22T21:51:53.830Z,22.00
2022-08-22T21:54:21.340Z,22.20
2022-08-22T21:56:50.557Z,21.43
2022-08-22T21:59:58.996Z,21.86
2022-08-22T22:02:39.692Z,22.25
2022-08-22T22:05:18.016Z,22.81
2022-08-22T22:07:47.204Z,22.54
2022-08-22T22:10:17.738Z,23.29
2022-08-22T22:12:46.980Z,23.25
2022-08-22T22:15:17.411Z,23.07
2022-08-22T22:17:44.488Z,23.52
2022-08-22T22:20:12.355Z,23.67
2022-08-22T22:22:46.105Z,23.75
2022-08-22T22:25:38.735Z,23.49
2022-08-22T22:28:06.104Z,23.28
2022-08-22T22:30:33.060Z,22.81
2022-08-22T22:33:00.099Z,22.57
2022-08-22T22:35:27.251Z,23.00
2022-08-22T22:37:56.159Z,22.39
2022-08-22T22:40:24.290Z,22.21
2022-08-22T22:42:51.348Z,23.00
2022-08-22T22:45:18.417Z,23.49
2022-08-22T22:47:45.365Z,23.25
2022-08-22T22:50:12.355Z,23.61
2022-08-22T22:52:40.843Z,23.57
2022-08-22T22:55:09.194Z,23.76
2022-08-22T22:57:42.749Z,24.09
2022-08-22T23:00:11.461Z,23.91
2022-08-22T23:02:38.488Z,23.48
2022-08-22T23:05:06.869Z,23.32
2022-08-22T23:07:34.060Z,22.97
2022-08-22T23:10:01.536Z,23.54
2022-08-22T23:12:29.269Z,23.41
2022-08-22T23:14:56.228Z,23.63
2022-08-22T23:17:23.232Z,23.79
2022-08-22T23:19:51.180Z,23.49
2022-08-22T23:22:18.759Z,22.78
2022-08-22T23:24:45.933Z,23.29
2022-08-22T23:27:13.023Z,22.79
2022-08-22T23:29:43.443Z,23.43
2022-08-22T23:32:11.930Z,24.00
2022-08-22T23:34:46.173Z,23.70
2022-08-22T23:37:17.976Z,23.37
2022-08-22T23:39:45.411Z,23.17
2022-08-22T23:42:13.474Z,22.73
2022-08-22T23:44:42.373Z,22.69
2022-08-22T23:47:10.021Z,22.96
2022-08-22T23:49:39.168Z,23.18
2022-08-22T23:52:07.059Z,23.75
2022-08-22T23:54:34.575Z,24.20
2022-08-22T23:57:03.120Z,23.44
2022-08-22T23:59:43.385Z,23.52
